createdAt,value
2022-08-30T00:02:12.479Z,102365.00
2022-08-30T00:04:39.630Z,102368.00
2022-08-30T00:07:06.521Z,102368.69
2022-08-30T00:09:33.544Z,102362.44
2022-08-30T00:12:00.344Z,102352.75
2022-08-30T00:14:27.710Z,102349.22
2022-08-30T00:16:54.846Z,102351.50
2022-08-30T00:19:23.033Z,102345.06
2022-08-30T00:21:49.932Z,102342.59
2022-08-30T00:24:16.870Z,102346.97
2022-08-30T00:26:43.851Z,102336.34
2022-08-30T00:29:10.874Z,102336.25
2022-08-30T00:31:37.717Z,102336.13
2022-08-30T00:34:05.213Z,102332.25
2022-08-30T00:36:33.446Z,102340.97
2022-08-30T00:39:00.466Z,102340.34
2022-08-30T00:41:27.318Z,102345.94
2022-08-30T00:43:54.147Z,102340.66
2022-08-30T00:46:21.157Z,102332.59
2022-08-30T00:48:49.862Z,102337.97
2022-08-30T00:51:18.000Z,102342.69
2022-08-30T00:53:49.167Z,102345.72
2022-08-30T00:56:16.878Z,102352.78
2022-08-30T00:58:47.356Z,102343.56
2022-08-30T01:01:14.634Z,102357.59
2022-08-30T01:03:43.779Z,102357.19
2022-08-30T01:06:11.719Z,102346.66
2022-08-30T01:08:39.254Z,102349.34
2022-08-30T01:11:08.909Z,102343.31
2022-08-30T01:13:36.043Z,102351.75
2022-08-30T01:16:04.762Z,102344.56
2022-08-30T01:18:32.426Z,102349.50
2022-08-30T01:21:07.056Z,102349.94
2022-08-30T01:23:38.358Z,102344.22
2022-08-30T01:26:06.148Z,102343.47
2022-08-30T01:28:34.825Z,102342.84
2022-08-30T01:31:02.012Z,102339.00
2022-08-30T01:33:29.317Z,102348.34
2022-08-30T01:36:01.205Z,102350.38
2022-08-30T01:38:31.034Z,102348.50
2022-08-30T01:41:00.657Z,102353.03
2022-08-30T01:43:27.699Z,102351.75
2022-08-30T01:45:54.669Z,102358.94
2022-08-30T01:48:22.390Z,102355.47
2022-08-30T01:50:57.108Z,102362.50
2022-08-30T01:53:23.953Z,102356.44
2022-08-30T01:55:50.762Z,102356.31
2022-08-30T01:58:19.159Z,102351.78
2022-08-30T02:00:46.037Z,102362.22
2022-08-30T02:03:12.937Z,102357.78
2022-08-30T02:05:39.889Z,102361.00
2022-08-30T02:08:06.714Z,102358.66
2022-08-30T02:10:33.673Z,102367.81
2022-08-30T02:13:00.586Z,102348.00
2022-08-30T02:15:29.013Z,102363.69
2022-08-30T02:17:56.070Z,102361.84
2022-08-30T02:20:23.256Z,102355.59
2022-08-30T02:22:50.390Z,102356.59
2022-08-30T02:25:21.179Z,102356.47
2022-08-30T02:27:48.332Z,102365.06
2022-08-30T02:30:15.238Z,102358.84
2022-08-30T02:32:43.474Z,102360.78
2022-08-30T02:35:10.481Z,102366.16
2022-08-30T02:37:37.601Z,102363.56
2022-08-30T02:40:07.032Z,102356.59
2022-08-30T02:42:34.294Z,102358.09
2022-08-30T02:45:01.238Z,102360.78
2022-08-30T02:47:28.212Z,102359.06
2022-08-30T02:49:56.460Z,102358.31
2022-08-30T02:52:27.969Z,102358.09
2022-08-30T02:54:55.566Z,102348.53
2022-08-30T02:57:22.987Z,102342.38
2022-08-30T02:59:50.108Z,102344.25
2022-08-30T03:02:17.280Z,102338.88
2022-08-30T03:04:46.841Z,102342.63
2022-08-30T03:07:16.315Z,102342.75
2022-08-30T03:09:43.437Z,102345.31
2022-08-30T03:12:10.784Z,102343.38
2022-08-30T03:14:38.961Z,102334.22
2022-08-30T03:17:11.207Z,102333.59
2022-08-30T03:19:43.045Z,102338.34
2022-08-30T03:22:10.699Z,102343.84
2022-08-30T03:24:39.384Z,102337.94
2022-08-30T03:27:08.120Z,102344.50
2022-08-30T03:29:35.451Z,102342.03
2022-08-30T03:32:02.844Z,102333.13
2022-08-30T03:34:29.790Z,102335.41
2022-08-30T03:36:56.878Z,102337.47
2022-08-30T03:39:24.838Z,102341.00
2022-08-30T03:41:54.024Z,102334.78
2022-08-30T03:44:21.474Z,102331.47
2022-08-30T03:46:48.597Z,102329.50
2022-08-30T03:49:15.930Z,102334.16
2022-08-30T03:51:42.774Z,102331.34
2022-08-30T03:54:10.096Z,102341.22
2022-08-30T03:56:37.213Z,102330.94
2022-08-30T03:59:05.825Z,102327.69
2022-08-30T04:01:33.025Z,102328.44
2022-08-30T04:03:59.960Z,102329.84
2022-08-30T04:06:27.482Z,102329.34
2022-08-30T04:08:55.203Z,102335.34
2022-08-30T04:11:22.150Z,102335.34
2022-08-30T04:13:51.845Z,102336.63
2022-08-30T04:16:20.441Z,102337.50
2022-08-30T04:18:47.528Z,102339.44
2022-08-30T04:21:14.529Z,102334.16
2022-08-30T04:23:41.412Z,102329.00
2022-08-30T04:26:08.672Z,102333.75
2022-08-30T04:28:36.147Z,102333.66
2022-08-30T04:31:08.676Z,102337.50
2022-08-30T04:33:41.306Z,102333.91
2022-08-30T04:36:09.798Z,102336.81
2022-08-30T04:38:39.436Z,102341.31
2022-08-30T04:41:10.518Z,102336.25
2022-08-30T04:43:37.509Z,102339.50
2022-08-30T04:46:06.972Z,102348.81
2022-08-30T04:48:35.075Z,102356.25
2022-08-30T04:51:05.954Z,102351.19
2022-08-30T04:53:33.350Z,102354.84
2022-08-30T04:56:00.284Z,102363.97
2022-08-30T04:58:27.470Z,102356.66
2022-08-30T05:00:54.364Z,102363.63
2022-08-30T05:03:21.441Z,102357.09
2022-08-30T05:05:49.077Z,102356.13
2022-08-30T05:08:23.257Z,102358.06
2022-08-30T05:10:53.380Z,102366.78
2022-08-30T05:13:35.335Z,102360.19
2022-08-30T05:16:05.780Z,102368.25
2022-08-30T05:18:32.901Z,102369.66
2022-08-30T05:21:04.329Z,102368.13
2022-08-30T05:23:32.705Z,102374.88
2022-08-30T05:25:59.558Z,102380.47
2022-08-30T05:28:26.614Z,102379.06
2022-08-30T05:30:53.513Z,102388.66
2022-08-30T05:33:20.366Z,102387.69
2022-08-30T05:35:47.370Z,102384.22
2022-08-30T05:38:14.254Z,102382.41
2022-08-30T05:40:43.858Z,102382.19
2022-08-30T05:43:11.448Z,102389.38
2022-08-30T05:45:38.488Z,102382.59
2022-08-30T05:48:05.976Z,102385.50
2022-08-30T05:50:34.946Z,102387.53
2022-08-30T05:53:03.776Z,102379.13
2022-08-30T05:55:31.170Z,102381.50
2022-08-30T05:58:00.791Z,102376.72
2022-08-30T06:00:30.523Z,102393.25
2022-08-30T06:02:57.789Z,102393.41
2022-08-30T06:05:24.628Z,102383.38
2022-08-30T06:07:51.475Z,102387.69
2022-08-30T06:10:18.453Z,102405.28
2022-08-30T06:12:45.331Z,102405.06
2022-08-30T06:15:13.784Z,102396.56
2022-08-30T06:17:40.710Z,102399.75
2022-08-30T06:20:09.121Z,102392.88
2022-08-30T06:22:36.374Z,102402.84
2022-08-30T06:25:04.359Z,102400.03
2022-08-30T06:27:31.508Z,102408.63
2022-08-30T06:29:58.423Z,102407.94
2022-08-30T06:32:26.713Z,102402.44
2022-08-30T06:34:53.649Z,102406.59
2022-08-30T06:37:24.641Z,102403.47
2022-08-30T06:39:57.694Z,102399.91
2022-08-30T06:42:30.622Z,102403.34
2022-08-30T06:44:57.718Z,102402.41
2022-08-30T06:47:26.495Z,102405.88
2022-08-30T06:49:53.282Z,102408.31
2022-08-30T06:52:20.701Z,102407.94
2022-08-30T06:54:47.686Z,102403.66
2022-08-30T06:57:14.529Z,102413.00
2022-08-30T06:59:41.627Z,102414.81
2022-08-30T07:02:09.046Z,102412.03
2022-08-30T07:04:38.947Z,102414.34
2022-08-30T07:07:06.128Z,102413.28
2022-08-30T07:12:06.777Z,102423.81
2022-08-30T07:14:33.588Z,102425.78
2022-08-30T07:17:00.596Z,102421.13
2022-08-30T07:19:27.449Z,102416.50
2022-08-30T07:21:55.747Z,102420.25
2022-08-30T07:24:22.725Z,102411.06
2022-08-30T07:26:52.087Z,102424.09
2022-08-30T07:29:19.955Z,102425.94
2022-08-30T07:31:47.081Z,102426.91
2022-08-30T07:34:13.989Z,102428.75
2022-08-30T07:36:40.821Z,102423.47
2022-08-30T07:39:09.953Z,102432.19
2022-08-30T07:41:39.033Z,102424.59
2022-08-30T07:44:06.477Z,102428.16
2022-08-30T07:46:33.922Z,102435.50
2022-08-30T07:49:01.863Z,102436.50
2022-08-30T07:51:32.479Z,102428.66
2022-08-30T07:54:00.656Z,102446.34
2022-08-30T07:56:29.052Z,102441.56
2022-08-30T07:58:56.007Z,102439.81
2022-08-30T08:01:23.729Z,102440.19
2022-08-30T08:03:51.627Z,102441.25
2022-08-30T08:06:21.114Z,102441.19
2022-08-30T08:08:48.142Z,102436.78
2022-08-30T08:11:17.958Z,102449.28
2022-08-30T08:13:53.506Z,102452.25
2022-08-30T08:16:22.414Z,102450.06
2022-08-30T08:18:49.442Z,102437.13
2022-08-30T08:21:16.668Z,102449.16
2022-08-30T08:23:43.689Z,102453.84
2022-08-30T08:26:11.173Z,102447.72
2022-08-30T08:28:38.078Z,102449.69
2022-08-30T08:31:14.499Z,102450.66
2022-08-30T08:33:41.280Z,102448.22
2022-08-30T08:36:09.484Z,102449.94
2022-08-30T08:38:37.836Z,102451.06
2022-08-30T08:41:12.960Z,102452.72
2022-08-30T08:43:40.157Z,102453.75
2022-08-30T08:46:16.651Z,102458.06
2022-08-30T08:48:59.654Z,102456.72
2022-08-30T08:51:49.391Z,102460.63
2022-08-30T08:54:23.085Z,102461.72
2022-08-30T08:56:50.342Z,102464.63
2022-08-30T08:59:17.844Z,102466.97
2022-08-30T09:01:47.740Z,102462.31
2022-08-30T09:04:17.693Z,102455.84
2022-08-30T09:06:57.087Z,102460.66
2022-08-30T09:09:27.841Z,102456.63
2022-08-30T09:11:54.776Z,102438.72
2022-08-30T09:14:25.422Z,102459.47
2022-08-30T09:17:02.871Z,102457.59
2022-08-30T09:19:40.390Z,102455.09
2022-08-30T09:22:26.281Z,102469.31
2022-08-30T09:24:59.448Z,102464.00
2022-08-30T09:27:30.907Z,102467.28
2022-08-30T09:30:02.111Z,102462.75
2022-08-30T09:32:33.890Z,102472.88
2022-08-30T09:35:01.306Z,102461.63
2022-08-30T09:37:33.392Z,102464.41
2022-08-30T09:40:00.367Z,102470.34
2022-08-30T09:42:30.181Z,102470.41
2022-08-30T09:45:10.512Z,102468.44
2022-08-30T09:47:42.961Z,102464.88
2022-08-30T09:50:13.705Z,102466.63
2022-08-30T09:52:56.505Z,102467.66
2022-08-30T09:56:01.940Z,102469.75
2022-08-30T09:58:43.594Z,102460.75
2022-08-30T10:01:15.043Z,102461.97
2022-08-30T10:03:50.186Z,102463.41
2022-08-30T10:06:29.033Z,102461.03
2022-08-30T10:09:11.939Z,102461.84
2022-08-30T10:11:49.383Z,102450.56
2022-08-30T10:14:36.842Z,102453.34
2022-08-30T10:17:12.414Z,102448.34
2022-08-30T10:19:59.224Z,102449.38
2022-08-30T10:22:31.032Z,102445.91
2022-08-30T10:25:05.289Z,102453.53
2022-08-30T10:27:38.759Z,102454.78
2022-08-30T10:30:08.559Z,102455.19
2022-08-30T10:32:41.953Z,102449.03
2022-08-30T10:35:19.526Z,102442.69
2022-08-30T10:37:51.387Z,102455.16
2022-08-30T10:40:44.766Z,102452.09
2022-08-30T10:43:19.510Z,102441.88
2022-08-30T10:45:49.108Z,102452.78
2022-08-30T10:48:21.452Z,102445.47
2022-08-30T10:50:53.800Z,102435.47
2022-08-30T10:53:29.553Z,102434.25
2022-08-30T10:56:02.635Z,102445.81
2022-08-30T10:58:31.590Z,102437.31
2022-08-30T11:01:26.726Z,102440.88
2022-08-30T11:04:28.478Z,102443.09
2022-08-30T11:07:09.925Z,102442.44
2022-08-30T11:09:52.855Z,102439.91
2022-08-30T11:12:34.181Z,102451.59
2022-08-30T11:15:14.542Z,102440.75
2022-08-30T11:17:47.206Z,102426.53
2022-08-30T11:20:29.987Z,102444.13
2022-08-30T11:23:25.833Z,102440.69
2022-08-30T11:25:57.868Z,102441.34
2022-08-30T11:29:07.031Z,102432.25
2022-08-30T11:31:40.664Z,102437.66
2022-08-30T11:34:09.672Z,102439.56
2022-08-30T11:37:09.770Z,102439.72
2022-08-30T11:39:56.306Z,102437.31
2022-08-30T11:42:30.966Z,102435.41
2022-08-30T11:45:16.264Z,102430.00
2022-08-30T11:47:47.410Z,102431.84
2022-08-30T11:50:20.475Z,102430.31
2022-08-30T11:52:58.191Z,102431.69
2022-08-30T11:55:37.597Z,102439.56
2022-08-30T11:58:31.228Z,102437.16
2022-08-30T12:01:41.835Z,102435.81
2022-08-30T12:04:15.301Z,102425.34
2022-08-30T12:06:57.062Z,102419.94
2022-08-30T12:10:03.491Z,102422.84
2022-08-30T12:13:02.195Z,102423.19
2022-08-30T12:15:58.935Z,102421.75
2022-08-30T12:18:45.549Z,102428.50
2022-08-30T12:21:28.272Z,102418.69
2022-08-30T12:24:03.696Z,102428.88
2022-08-30T12:26:34.818Z,102422.88
2022-08-30T12:29:12.187Z,102420.22
2022-08-30T12:31:41.072Z,102419.53
2022-08-30T12:34:09.320Z,102425.50
2022-08-30T12:36:42.031Z,102412.59
2022-08-30T12:39:12.387Z,102422.41
2022-08-30T12:41:43.269Z,102426.03
2022-08-30T12:44:15.589Z,102422.31
2022-08-30T12:46:45.631Z,102422.47
2022-08-30T12:49:16.097Z,102412.94
2022-08-30T12:51:44.123Z,102413.72
2022-08-30T12:54:20.860Z,102406.22
2022-08-30T12:56:56.529Z,102412.03
2022-08-30T12:59:59.548Z,102410.91
2022-08-30T13:02:42.029Z,102405.53
2022-08-30T13:05:48.072Z,102414.28
2022-08-30T13:08:18.838Z,102407.88
2022-08-30T13:10:55.738Z,102398.22
2022-08-30T13:13:34.280Z,102397.41
2022-08-30T13:16:22.477Z,102396.31
2022-08-30T13:18:50.752Z,102393.66
2022-08-30T13:21:29.700Z,102393.47
2022-08-30T13:23:59.133Z,102402.25
2022-08-30T13:26:27.582Z,102396.84
2022-08-30T13:28:58.803Z,102396.78
2022-08-30T13:31:28.497Z,102392.13
2022-08-30T13:33:57.626Z,102374.56
2022-08-30T13:36:28.239Z,102377.50
2022-08-30T13:38:56.594Z,102384.41
2022-08-30T13:41:25.354Z,102369.63
2022-08-30T13:44:14.108Z,102378.72
2022-08-30T13:46:53.529Z,102385.50
2022-08-30T13:52:22.201Z,102368.06
2022-08-30T13:54:50.373Z,102368.28
2022-08-30T14:00:12.301Z,102368.59
2022-08-30T14:02:46.300Z,102368.41
2022-08-30T14:05:31.086Z,102354.16
2022-08-30T14:08:02.512Z,102365.63
2022-08-30T14:10:31.963Z,102362.03
2022-08-30T14:13:08.068Z,102361.97
2022-08-30T14:15:39.045Z,102356.16
2022-08-30T14:18:08.879Z,102359.00
2022-08-30T14:20:38.641Z,102360.59
2022-08-30T14:23:09.948Z,102355.16
2022-08-30T14:25:37.475Z,102361.97
2022-08-30T14:28:04.381Z,102342.78
2022-08-30T14:30:31.968Z,102355.28
2022-08-30T14:33:00.240Z,102359.44
2022-08-30T14:35:28.935Z,102350.09
2022-08-30T14:37:56.086Z,102344.44
2022-08-30T14:40:24.274Z,102346.47
2022-08-30T14:42:51.203Z,102348.13
2022-08-30T14:45:27.083Z,102356.53
2022-08-30T14:47:54.003Z,102353.59
2022-08-30T14:50:21.016Z,102341.97
2022-08-30T14:52:49.346Z,102349.59
2022-08-30T14:55:16.229Z,102349.97
2022-08-30T14:57:43.258Z,102352.44
2022-08-30T15:00:13.227Z,102337.31
2022-08-30T15:02:40.807Z,102347.13
2022-08-30T15:05:08.630Z,102358.59
2022-08-30T15:07:35.685Z,102343.69
2022-08-30T15:10:05.430Z,102326.38
2022-08-30T15:12:33.306Z,102332.81
2022-08-30T15:15:00.577Z,102322.84
2022-08-30T15:17:27.821Z,102338.34
2022-08-30T15:19:54.672Z,102332.69
2022-08-30T15:22:21.438Z,102336.72
2022-08-30T15:24:49.042Z,102329.13
2022-08-30T15:27:19.050Z,102322.38
2022-08-30T15:29:45.919Z,102328.19
2022-08-30T15:32:16.890Z,102315.44
2022-08-30T15:34:45.467Z,102326.13
2022-08-30T15:37:23.456Z,102330.88
2022-08-30T15:39:54.710Z,102332.31
2022-08-30T15:42:22.976Z,102325.22
2022-08-30T15:44:50.929Z,102321.94
2022-08-30T15:47:20.280Z,102332.34
2022-08-30T15:49:54.867Z,102326.38
2022-08-30T15:52:21.796Z,102317.09
2022-08-30T15:54:49.146Z,102298.41
2022-08-30T15:57:17.713Z,102306.53
2022-08-30T15:59:46.422Z,102313.78
2022-08-30T16:02:14.152Z,102320.91
2022-08-30T16:04:44.732Z,102310.38
2022-08-30T16:07:13.842Z,102318.13
2022-08-30T16:09:41.148Z,102304.03
2022-08-30T16:12:09.851Z,102304.28
2022-08-30T16:14:37.249Z,102294.28
2022-08-30T16:17:06.435Z,102304.13
2022-08-30T16:19:34.343Z,102286.56
2022-08-30T16:22:01.348Z,102294.50
2022-08-30T16:24:28.494Z,102295.66
2022-08-30T16:26:55.488Z,102298.44
2022-08-30T16:29:22.499Z,102297.88
2022-08-30T16:31:49.562Z,102292.31
2022-08-30T16:34:20.366Z,102296.19
2022-08-30T16:36:47.524Z,102285.97
2022-08-30T16:39:14.640Z,102292.75
2022-08-30T16:41:44.767Z,102292.31
2022-08-30T16:44:12.680Z,102287.97
2022-08-30T16:46:41.331Z,102286.97
2022-08-30T16:49:08.892Z,102287.38
2022-08-30T16:51:38.622Z,102289.31
2022-08-30T16:54:07.757Z,102291.31
2022-08-30T16:56:36.351Z,102285.91
2022-08-30T16:59:09.057Z,102277.63
2022-08-30T17:01:38.909Z,102288.97
2022-08-30T17:04:08.266Z,102286.06
2022-08-30T17:06:36.028Z,102277.09
2022-08-30T17:09:04.874Z,102276.38
2022-08-30T17:11:31.788Z,102277.25
2022-08-30T17:13:58.614Z,102285.34
2022-08-30T17:16:27.674Z,102283.78
2022-08-30T17:18:55.645Z,102293.69
2022-08-30T17:21:23.239Z,102287.69
2022-08-30T17:23:50.478Z,102287.94
2022-08-30T17:26:19.531Z,102291.03
2022-08-30T17:28:46.508Z,102276.81
2022-08-30T17:31:14.939Z,102287.03
2022-08-30T17:33:43.196Z,102286.44
2022-08-30T17:36:12.570Z,102294.53
2022-08-30T17:38:44.885Z,102281.66
2022-08-30T17:41:13.192Z,102295.34
2022-08-30T17:43:41.579Z,102284.47
2022-08-30T17:46:11.307Z,102302.13
2022-08-30T17:48:39.617Z,102298.03
2022-08-30T17:51:07.314Z,102318.59
2022-08-30T17:53:35.040Z,102309.94
2022-08-30T17:56:02.804Z,102309.53
2022-08-30T17:58:29.691Z,102315.19
2022-08-30T18:04:01.406Z,102323.19
2022-08-30T18:06:30.850Z,102321.28
2022-08-30T18:08:57.828Z,102315.03
2022-08-30T18:11:24.697Z,102316.56
2022-08-30T18:13:51.618Z,102342.25
2022-08-30T18:16:21.744Z,102339.19
2022-08-30T18:18:56.996Z,102327.09
2022-08-30T18:21:25.358Z,102326.94
2022-08-30T18:23:52.502Z,102328.78
2022-08-30T18:26:24.003Z,102344.75
2022-08-30T18:28:51.370Z,102341.28
2022-08-30T18:31:20.324Z,102346.69
2022-08-30T18:33:48.022Z,102348.28
2022-08-30T18:36:15.027Z,102358.69
2022-08-30T18:38:42.792Z,102364.19
2022-08-30T18:41:14.131Z,102357.47
2022-08-30T18:43:42.237Z,102354.75
2022-08-30T18:46:12.425Z,102367.50
2022-08-30T18:48:42.951Z,102356.38
2022-08-30T18:51:12.094Z,102368.34
2022-08-30T18:53:39.582Z,102358.06
2022-08-30T18:56:08.471Z,102359.16
2022-08-30T18:58:35.666Z,102367.59
2022-08-30T19:01:03.426Z,102373.22
2022-08-30T19:03:35.165Z,102370.41
2022-08-30T19:06:06.681Z,102387.94
2022-08-30T19:08:37.366Z,102388.03
2022-08-30T19:11:04.983Z,102392.06
2022-08-30T19:13:34.978Z,102383.00
2022-08-30T19:16:02.291Z,102388.13
2022-08-30T19:18:29.289Z,102387.03
2022-08-30T19:20:56.819Z,102376.34
2022-08-30T19:23:28.372Z,102396.56
2022-08-30T19:26:01.378Z,102388.63
2022-08-30T19:28:28.788Z,102384.81
2022-08-30T19:30:55.844Z,102381.50
2022-08-30T19:33:22.724Z,102400.63
2022-08-30T19:35:51.385Z,102398.28
2022-08-30T19:38:18.946Z,102399.16
2022-08-30T19:40:53.886Z,102397.56
2022-08-30T19:43:21.660Z,102405.97
2022-08-30T19:45:53.262Z,102410.41
2022-08-30T19:48:22.282Z,102415.25
2022-08-30T19:50:49.315Z,102400.09
2022-08-30T19:53:16.466Z,102410.00
2022-08-30T19:55:45.224Z,102418.81
2022-08-30T19:58:13.920Z,102410.72
2022-08-30T20:00:45.130Z,102412.47
2022-08-30T20:03:29.201Z,102405.47
2022-08-30T20:05:56.988Z,102402.88
2022-08-30T20:08:24.179Z,102404.09
2022-08-30T20:10:52.181Z,102404.84
2022-08-30T20:13:23.870Z,102406.78
2022-08-30T20:15:55.871Z,102423.34
2022-08-30T20:18:26.081Z,102407.53
2022-08-30T20:20:53.209Z,102415.06
2022-08-30T20:23:22.760Z,102417.25
2022-08-30T20:24:26.362Z,102321.56
2022-08-30T20:25:52.356Z,102419.28
2022-08-30T20:28:21.219Z,102413.22
2022-08-30T20:30:48.261Z,102409.06
2022-08-30T20:33:15.076Z,102414.97
2022-08-30T20:35:48.786Z,102399.63
2022-08-30T20:38:21.520Z,102417.34
2022-08-30T20:40:51.468Z,102419.47
2022-08-30T20:43:22.096Z,102413.03
2022-08-30T20:45:49.231Z,102412.75
2022-08-30T20:48:16.597Z,102401.75
2022-08-30T20:50:43.574Z,102413.22
2022-08-30T20:53:10.797Z,102418.75
2022-08-30T20:55:41.005Z,102421.91
2022-08-30T20:58:07.884Z,102425.56
2022-08-30T21:00:36.871Z,102419.09
2022-08-30T21:03:08.348Z,102421.69
2022-08-30T21:05:52.032Z,102411.97
2022-08-30T21:08:18.898Z,102422.50
2022-08-30T21:10:46.396Z,102430.50
2022-08-30T21:13:13.178Z,102430.50
2022-08-30T21:15:46.306Z,102427.78
2022-08-30T21:18:13.725Z,102421.22
2022-08-30T21:20:41.024Z,102425.63
2022-08-30T21:23:07.941Z,102424.38
2022-08-30T21:25:37.747Z,102432.22
2022-08-30T21:28:04.604Z,102427.50
2022-08-30T21:30:31.631Z,102422.19
2022-08-30T21:33:01.533Z,102421.97
2022-08-30T21:35:46.810Z,102437.56
2022-08-30T21:38:14.265Z,102433.28
2022-08-30T21:40:41.574Z,102440.47
2022-08-30T21:43:08.783Z,102433.06
2022-08-30T21:45:37.605Z,102446.53
2022-08-30T21:48:06.363Z,102445.66
2022-08-30T21:50:33.306Z,102436.34
2022-08-30T21:53:00.766Z,102437.44
2022-08-30T21:55:27.673Z,102444.75
2022-08-30T21:57:55.049Z,102445.13
2022-08-30T22:00:22.221Z,102453.97
2022-08-30T22:02:52.675Z,102451.63
2022-08-30T22:05:21.715Z,102450.59
2022-08-30T22:07:48.580Z,102452.53
2022-08-30T22:10:15.330Z,102449.22
2022-08-30T22:12:42.145Z,102439.97
2022-08-30T22:15:09.871Z,102466.41
2022-08-30T22:17:36.646Z,102460.88
2022-08-30T22:20:04.460Z,102454.88
2022-08-30T22:22:32.834Z,102457.34
2022-08-30T22:24:59.863Z,102456.72
2022-08-30T22:27:26.736Z,102456.94
2022-08-30T22:29:53.582Z,102453.91
2022-08-30T22:32:21.348Z,102466.72
2022-08-30T22:34:48.380Z,102467.81
2022-08-30T22:37:15.999Z,102468.50
2022-08-30T22:39:44.090Z,102471.06
2022-08-30T22:42:10.916Z,102451.44
2022-08-30T22:44:37.793Z,102459.44
2022-08-30T22:47:04.871Z,102464.19
2022-08-30T22:49:31.764Z,102467.88
2022-08-30T22:51:58.541Z,102463.13
2022-08-30T22:54:25.459Z,102457.97
2022-08-30T22:56:53.639Z,102468.97
2022-08-30T22:59:20.515Z,102459.16
2022-08-30T23:01:54.269Z,102461.63
2022-08-30T23:04:21.060Z,102461.50
2022-08-30T23:06:49.746Z,102439.59
2022-08-30T23:09:17.212Z,102466.88
2022-08-30T23:11:43.935Z,102465.00
2022-08-30T23:14:12.334Z,102467.41
2022-08-30T23:16:39.296Z,102460.94
2022-08-30T23:19:06.365Z,102469.25
2022-08-30T23:21:33.162Z,102464.00
2022-08-30T23:24:18.460Z,102460.66
2022-08-30T23:27:06.379Z,102459.44
2022-08-30T23:29:53.088Z,102458.78
2022-08-30T23:32:39.374Z,102460.94
2022-08-30T23:35:29.483Z,102464.97
2022-08-30T23:38:16.125Z,102461.41
2022-08-30T23:41:01.410Z,102451.31
2022-08-30T23:43:46.676Z,102454.53
2022-08-30T23:46:34.044Z,102456.66
2022-08-30T23:49:19.884Z,102448.50
2022-08-30T23:52:05.353Z,102457.63
2022-08-30T23:54:50.639Z,102460.44
2022-08-30T23:57:36.553Z,102461.63
